sensor_id;sensor_type;location;lat;lon;timestamp;P1;durP1;ratioP1;P2;durP2;ratioP2
25721;SDS011;13578;53.450;15.496;2023-10-08T00:00:38;15.82;;;2.00;;
25721;SDS011;13578;53.450;15.496;2023-10-08T00:03:43;5.22;;;1.90;;
25721;SDS011;13578;53.450;15.496;2023-10-08T00:06:58;4.77;;;1.47;;
25721;SDS011;13578;53.450;15.496;2023-10-08T00:09:58;5.63;;;1.70;;
25721;SDS011;13578;53.450;15.496;2023-10-08T00:12:59;5.60;;;1.58;;
25721;SDS011;13578;53.450;15.496;2023-10-08T00:16:00;5.45;;;2.15;;
25721;SDS011;13578;53.450;15.496;2023-10-08T00:19:00;3.00;;;1.30;;
25721;SDS011;13578;53.450;15.496;2023-10-08T00:22:08;10.02;;;3.25;;
25721;SDS011;13578;53.450;15.496;2023-10-08T00:25:10;15.80;;;3.78;;
25721;SDS011;13578;53.450;15.496;2023-10-08T00:28:12;2.45;;;1.20;;
25721;SDS011;13578;53.450;15.496;2023-10-08T00:31:14;4.20;;;1.42;;
25721;SDS011;13578;53.450;15.496;2023-10-08T00:34:17;6.22;;;1.40;;
25721;SDS011;13578;53.450;15.496;2023-10-08T00:37:20;11.10;;;1.58;;
25721;SDS011;13578;53.450;15.496;2023-10-08T00:40:23;8.55;;;1.50;;
25721;SDS011;13578;53.450;15.496;2023-10-08T00:43:31;2.20;;;1.10;;
25721;SDS011;13578;53.450;15.496;2023-10-08T00:46:34;4.25;;;1.60;;
25721;SDS011;13578;53.450;15.496;2023-10-08T00:49:50;8.68;;;1.30;;
25721;SDS011;13578;53.450;15.496;2023-10-08T00:53:11;6.03;;;1.15;;
25721;SDS011;13578;53.450;15.496;2023-10-08T00:56:21;3.70;;;1.42;;
25721;SDS011;13578;53.450;15.496;2023-10-08T00:59:25;4.60;;;1.15;;
25721;SDS011;13578;53.450;15.496;2023-10-08T01:02:26;5.18;;;1.45;;
25721;SDS011;13578;53.450;15.496;2023-10-08T01:05:36;6.50;;;1.42;;
25721;SDS011;13578;53.450;15.496;2023-10-08T01:08:42;1.17;;;0.90;;
25721;SDS011;13578;53.450;15.496;2023-10-08T01:12:11;1.42;;;0.93;;
25721;SDS011;13578;53.450;15.496;2023-10-08T01:15:45;5.70;;;1.33;;
25721;SDS011;13578;53.450;15.496;2023-10-08T01:18:50;2.13;;;1.02;;
25721;SDS011;13578;53.450;15.496;2023-10-08T01:21:54;2.25;;;1.15;;
25721;SDS011;13578;53.450;15.496;2023-10-08T01:24:58;1.50;;;1.10;;
25721;SDS011;13578;53.450;15.496;2023-10-08T01:28:02;3.15;;;1.65;;
25721;SDS011;13578;53.450;15.496;2023-10-08T01:31:09;1.95;;;1.08;;
25721;SDS011;13578;53.450;15.496;2023-10-08T01:34:12;2.22;;;1.00;;
25721;SDS011;13578;53.450;15.496;2023-10-08T01:37:17;1.63;;;1.40;;
25721;SDS011;13578;53.450;15.496;2023-10-08T01:40:19;1.60;;;1.25;;
25721;SDS011;13578;53.450;15.496;2023-10-08T01:43:19;1.83;;;1.02;;
25721;SDS011;13578;53.450;15.496;2023-10-08T01:46:21;2.58;;;1.30;;
25721;SDS011;13578;53.450;15.496;2023-10-08T01:49:22;2.15;;;1.00;;
25721;SDS011;13578;53.450;15.496;2023-10-08T01:52:29;4.28;;;0.98;;
25721;SDS011;13578;53.450;15.496;2023-10-08T01:55:30;4.03;;;1.23;;
25721;SDS011;13578;53.450;15.496;2023-10-08T01:58:34;3.97;;;1.33;;
25721;SDS011;13578;53.450;15.496;2023-10-08T02:01:34;2.55;;;1.30;;
25721;SDS011;13578;53.450;15.496;2023-10-08T02:04:35;1.23;;;1.08;;
25721;SDS011;13578;53.450;15.496;2023-10-08T02:07:36;2.38;;;0.70;;
25721;SDS011;13578;53.450;15.496;2023-10-08T02:10:37;5.15;;;1.30;;
25721;SDS011;13578;53.450;15.496;2023-10-08T02:13:40;0.70;;;0.70;;
25721;SDS011;13578;53.450;15.496;2023-10-08T02:16:43;5.20;;;1.20;;
25721;SDS011;13578;53.450;15.496;2023-10-08T02:19:44;7.53;;;1.15;;
25721;SDS011;13578;53.450;15.496;2023-10-08T02:22:45;0.98;;;0.90;;
25721;SDS011;13578;53.450;15.496;2023-10-08T02:25:46;4.28;;;1.25;;
25721;SDS011;13578;53.450;15.496;2023-10-08T02:28:48;1.67;;;1.33;;
25721;SDS011;13578;53.450;15.496;2023-10-08T02:31:51;1.42;;;1.23;;
25721;SDS011;13578;53.450;15.496;2023-10-08T02:34:53;1.67;;;1.58;;
25721;SDS011;13578;53.450;15.496;2023-10-08T02:37:53;2.58;;;1.90;;
25721;SDS011;13578;53.450;15.496;2023-10-08T02:40:57;4.60;;;2.40;;
25721;SDS011;13578;53.450;15.496;2023-10-08T02:43:59;2.15;;;1.95;;
25721;SDS011;13578;53.450;15.496;2023-10-08T02:47:00;7.75;;;1.70;;
25721;SDS011;13578;53.450;15.496;2023-10-08T02:50:01;1.77;;;1.23;;
25721;SDS011;13578;53.450;15.496;2023-10-08T02:53:07;5.75;;;1.73;;
25721;SDS011;13578;53.450;15.496;2023-10-08T02:56:11;1.17;;;1.05;;
25721;SDS011;13578;53.450;15.496;2023-10-08T02:59:16;1.92;;;1.30;;
25721;SDS011;13578;53.450;15.496;2023-10-08T03:02:16;2.72;;;2.03;;
25721;SDS011;13578;53.450;15.496;2023-10-08T03:05:21;3.60;;;1.52;;
25721;SDS011;13578;53.450;15.496;2023-10-08T03:08:22;4.65;;;2.90;;
25721;SDS011;13578;53.450;15.496;2023-10-08T03:11:23;4.03;;;2.92;;
25721;SDS011;13578;53.450;15.496;2023-10-08T03:14:26;3.30;;;1.67;;
25721;SDS011;13578;53.450;15.496;2023-10-08T03:17:27;2.35;;;1.45;;
25721;SDS011;13578;53.450;15.496;2023-10-08T03:20:29;3.72;;;2.22;;
25721;SDS011;13578;53.450;15.496;2023-10-08T03:23:38;3.00;;;2.00;;
25721;SDS011;13578;53.450;15.496;2023-10-08T03:26:46;1.90;;;1.60;;
25721;SDS011;13578;53.450;15.496;2023-10-08T03:29:55;1.30;;;1.20;;
25721;SDS011;13578;53.450;15.496;2023-10-08T03:32:59;1.63;;;1.20;;
25721;SDS011;13578;53.450;15.496;2023-10-08T03:36:02;1.33;;;1.23;;
25721;SDS011;13578;53.450;15.496;2023-10-08T03:39:34;2.58;;;1.52;;
25721;SDS011;13578;53.450;15.496;2023-10-08T03:43:01;1.55;;;1.30;;
25721;SDS011;13578;53.450;15.496;2023-10-08T03:46:02;1.65;;;1.10;;
25721;SDS011;13578;53.450;15.496;2023-10-08T03:49:06;1.38;;;1.25;;
25721;SDS011;13578;53.450;15.496;2023-10-08T03:52:14;1.38;;;1.27;;
25721;SDS011;13578;53.450;15.496;2023-10-08T03:55:15;1.45;;;1.35;;
25721;SDS011;13578;53.450;15.496;2023-10-08T03:58:16;1.60;;;1.50;;
25721;SDS011;13578;53.450;15.496;2023-10-08T04:01:30;2.28;;;1.48;;
25721;SDS011;13578;53.450;15.496;2023-10-08T04:04:32;4.38;;;1.30;;
25721;SDS011;13578;53.450;15.496;2023-10-08T04:07:52;1.60;;;1.50;;
25721;SDS011;13578;53.450;15.496;2023-10-08T04:10:58;3.03;;;1.70;;
25721;SDS011;13578;53.450;15.496;2023-10-08T04:14:08;16.75;;;2.13;;
25721;SDS011;13578;53.450;15.496;2023-10-08T04:17:08;1.70;;;1.58;;
25721;SDS011;13578;53.450;15.496;2023-10-08T04:20:11;3.83;;;1.30;;
25721;SDS011;13578;53.450;15.496;2023-10-08T04:23:31;3.75;;;1.65;;
25721;SDS011;13578;53.450;15.496;2023-10-08T04:26:33;2.28;;;1.27;;
25721;SDS011;13578;53.450;15.496;2023-10-08T04:29:33;3.55;;;1.33;;
25721;SDS011;13578;53.450;15.496;2023-10-08T04:32:36;1.58;;;1.23;;
25721;SDS011;13578;53.450;15.496;2023-10-08T04:35:37;2.60;;;1.50;;
25721;SDS011;13578;53.450;15.496;2023-10-08T04:38:48;3.30;;;1.70;;
25721;SDS011;13578;53.450;15.496;2023-10-08T04:41:50;7.00;;;1.55;;
25721;SDS011;13578;53.450;15.496;2023-10-08T04:44:54;2.65;;;2.00;;
25721;SDS011;13578;53.450;15.496;2023-10-08T04:47:54;1.48;;;1.38;;
25721;SDS011;13578;53.450;15.496;2023-10-08T04:50:59;1.58;;;1.48;;
25721;SDS011;13578;53.450;15.496;2023-10-08T04:54:01;2.38;;;1.45;;
25721;SDS011;13578;53.450;15.496;2023-10-08T04:57:06;4.18;;;1.75;;
25721;SDS011;13578;53.450;15.496;2023-10-08T05:00:15;4.78;;;1.60;;
25721;SDS011;13578;53.450;15.496;2023-10-08T05:03:16;9.40;;;2.13;;
25721;SDS011;13578;53.450;15.496;2023-10-08T05:06:20;6.18;;;1.73;;
25721;SDS011;13578;53.450;15.496;2023-10-08T05:09:40;4.68;;;1.73;;
25721;SDS011;13578;53.450;15.496;2023-10-08T05:13:12;3.42;;;2.00;;
25721;SDS011;13578;53.450;15.496;2023-10-08T05:16:16;2.92;;;1.77;;
25721;SDS011;13578;53.450;15.496;2023-10-08T05:19:39;1.80;;;1.70;;
25721;SDS011;13578;53.450;15.496;2023-10-08T05:22:41;4.47;;;2.00;;
25721;SDS011;13578;53.450;15.496;2023-10-08T05:25:47;2.17;;;2.00;;
25721;SDS011;13578;53.450;15.496;2023-10-08T05:29:06;2.72;;;1.90;;
25721;SDS011;13578;53.450;15.496;2023-10-08T05:32:27;3.25;;;2.33;;
25721;SDS011;13578;53.450;15.496;2023-10-08T05:35:39;1.90;;;1.80;;
25721;SDS011;13578;53.450;15.496;2023-10-08T05:38:41;3.72;;;2.17;;
25721;SDS011;13578;53.450;15.496;2023-10-08T05:41:49;3.28;;;2.03;;
25721;SDS011;13578;53.450;15.496;2023-10-08T05:45:13;3.47;;;1.88;;
25721;SDS011;13578;53.450;15.496;2023-10-08T05:48:27;2.58;;;2.30;;
25721;SDS011;13578;53.450;15.496;2023-10-08T05:51:31;4.68;;;2.05;;
25721;SDS011;13578;53.450;15.496;2023-10-08T05:54:48;3.35;;;2.25;;
25721;SDS011;13578;53.450;15.496;2023-10-08T05:58:16;1.83;;;1.73;;
25721;SDS011;13578;53.450;15.496;2023-10-08T06:01:19;1.73;;;1.63;;
25721;SDS011;13578;53.450;15.496;2023-10-08T06:04:40;1.90;;;1.80;;
25721;SDS011;13578;53.450;15.496;2023-10-08T06:07:54;13.27;;;2.22;;
25721;SDS011;13578;53.450;15.496;2023-10-08T06:10:55;2.00;;;1.80;;
25721;SDS011;13578;53.450;15.496;2023-10-08T06:14:01;3.17;;;2.00;;
25721;SDS011;13578;53.450;15.496;2023-10-08T06:17:01;3.72;;;2.15;;
25721;SDS011;13578;53.450;15.496;2023-10-08T06:20:14;1.90;;;1.80;;
25721;SDS011;13578;53.450;15.496;2023-10-08T06:23:17;5.57;;;1.48;;
25721;SDS011;13578;53.450;15.496;2023-10-08T06:26:18;2.03;;;1.90;;
25721;SDS011;13578;53.450;15.496;2023-10-08T06:29:21;2.45;;;2.05;;
25721;SDS011;13578;53.450;15.496;2023-10-08T06:32:27;2.53;;;2.25;;
25721;SDS011;13578;53.450;15.496;2023-10-08T06:35:30;10.15;;;4.78;;
25721;SDS011;13578;53.450;15.496;2023-10-08T06:38:33;11.32;;;4.53;;
25721;SDS011;13578;53.450;15.496;2023-10-08T06:41:33;9.85;;;4.47;;
25721;SDS011;13578;53.450;15.496;2023-10-08T06:44:34;8.70;;;3.05;;
25721;SDS011;13578;53.450;15.496;2023-10-08T06:47:37;3.58;;;2.92;;
25721;SDS011;13578;53.450;15.496;2023-10-08T06:50:39;2.75;;;2.20;;
25721;SDS011;13578;53.450;15.496;2023-10-08T06:53:41;3.05;;;2.50;;
25721;SDS011;13578;53.450;15.496;2023-10-08T06:56:44;2.67;;;2.00;;
25721;SDS011;13578;53.450;15.496;2023-10-08T06:59:52;1.65;;;1.55;;
25721;SDS011;13578;53.450;15.496;2023-10-08T07:02:52;3.38;;;1.60;;
25721;SDS011;13578;53.450;15.496;2023-10-08T07:05:54;1.92;;;1.83;;
25721;SDS011;13578;53.450;15.496;2023-10-08T07:09:01;5.18;;;2.45;;
25721;SDS011;13578;53.450;15.496;2023-10-08T07:12:05;4.18;;;2.42;;
25721;SDS011;13578;53.450;15.496;2023-10-08T07:15:13;4.65;;;2.50;;
25721;SDS011;13578;53.450;15.496;2023-10-08T07:18:14;8.27;;;2.88;;
25721;SDS011;13578;53.450;15.496;2023-10-08T07:21:21;6.05;;;3.20;;
25721;SDS011;13578;53.450;15.496;2023-10-08T07:24:44;4.38;;;2.85;;
25721;SDS011;13578;53.450;15.496;2023-10-08T07:27:52;5.65;;;2.63;;
25721;SDS011;13578;53.450;15.496;2023-10-08T07:30:53;6.30;;;1.63;;
25721;SDS011;13578;53.450;15.496;2023-10-08T07:33:55;2.97;;;2.08;;
25721;SDS011;13578;53.450;15.496;2023-10-08T07:36:56;2.70;;;1.80;;
25721;SDS011;13578;53.450;15.496;2023-10-08T07:39:57;2.35;;;1.50;;
25721;SDS011;13578;53.450;15.496;2023-10-08T07:42:59;7.53;;;2.10;;
25721;SDS011;13578;53.450;15.496;2023-10-08T07:46:08;2.33;;;1.95;;
25721;SDS011;13578;53.450;15.496;2023-10-08T07:49:13;2.53;;;1.65;;
25721;SDS011;13578;53.450;15.496;2023-10-08T07:52:14;2.90;;;2.03;;
25721;SDS011;13578;53.450;15.496;2023-10-08T07:55:15;2.40;;;1.40;;
25721;SDS011;13578;53.450;15.496;2023-10-08T07:58:17;3.13;;;1.83;;
25721;SDS011;13578;53.450;15.496;2023-10-08T08:01:18;6.53;;;1.65;;
25721;SDS011;13578;53.450;15.496;2023-10-08T08:04:21;2.35;;;1.80;;
25721;SDS011;13578;53.450;15.496;2023-10-08T08:07:22;2.63;;;1.70;;
25721;SDS011;13578;53.450;15.496;2023-10-08T08:10:24;2.28;;;1.58;;
25721;SDS011;13578;53.450;15.496;2023-10-08T08:13:25;3.42;;;1.73;;
25721;SDS011;13578;53.450;15.496;2023-10-08T08:16:27;3.38;;;1.95;;
25721;SDS011;13578;53.450;15.496;2023-10-08T08:19:29;2.80;;;1.20;;
25721;SDS011;13578;53.450;15.496;2023-10-08T08:22:31;3.38;;;1.60;;
25721;SDS011;13578;53.450;15.496;2023-10-08T08:25:38;4.47;;;1.70;;
25721;SDS011;13578;53.450;15.496;2023-10-08T08:29:01;1.13;;;1.02;;
25721;SDS011;13578;53.450;15.496;2023-10-08T08:32:02;1.35;;;1.02;;
25721;SDS011;13578;53.450;15.496;2023-10-08T08:35:07;2.50;;;1.10;;
25721;SDS011;13578;53.450;15.496;2023-10-08T08:38:09;0.85;;;0.85;;
25721;SDS011;13578;53.450;15.496;2023-10-08T08:41:12;3.33;;;1.15;;
25721;SDS011;13578;53.450;15.496;2023-10-08T08:44:13;3.67;;;1.63;;
25721;SDS011;13578;53.450;15.496;2023-10-08T08:47:14;3.85;;;1.25;;
25721;SDS011;13578;53.450;15.496;2023-10-08T08:50:18;1.75;;;0.73;;
25721;SDS011;13578;53.450;15.496;2023-10-08T08:53:20;2.30;;;1.38;;
25721;SDS011;13578;53.450;15.496;2023-10-08T08:56:22;2.08;;;0.90;;
25721;SDS011;13578;53.450;15.496;2023-10-08T08:59:23;8.20;;;3.38;;
25721;SDS011;13578;53.450;15.496;2023-10-08T09:02:24;2.40;;;1.40;;
25721;SDS011;13578;53.450;15.496;2023-10-08T09:05:25;6.47;;;2.78;;
25721;SDS011;13578;53.450;15.496;2023-10-08T09:08:33;2.10;;;1.20;;
25721;SDS011;13578;53.450;15.496;2023-10-08T09:11:35;7.57;;;1.92;;
25721;SDS011;13578;53.450;15.496;2023-10-08T09:14:41;1.55;;;0.85;;
25721;SDS011;13578;53.450;15.496;2023-10-08T09:17:43;1.88;;;1.00;;
25721;SDS011;13578;53.450;15.496;2023-10-08T09:20:43;1.48;;;1.02;;
25721;SDS011;13578;53.450;15.496;2023-10-08T09:23:45;2.72;;;1.05;;
25721;SDS011;13578;53.450;15.496;2023-10-08T09:26:50;9.15;;;1.38;;
25721;SDS011;13578;53.450;15.496;2023-10-08T09:29:52;3.50;;;1.20;;
25721;SDS011;13578;53.450;15.496;2023-10-08T09:32:55;2.00;;;1.13;;
25721;SDS011;13578;53.450;15.496;2023-10-08T09:35:56;1.35;;;1.10;;
25721;SDS011;13578;53.450;15.496;2023-10-08T09:39:03;1.17;;;0.63;;
25721;SDS011;13578;53.450;15.496;2023-10-08T09:42:07;0.68;;;0.60;;
25721;SDS011;13578;53.450;15.496;2023-10-08T09:45:11;0.98;;;0.60;;
25721;SDS011;13578;53.450;15.496;2023-10-08T09:48:12;1.48;;;0.80;;
25721;SDS011;13578;53.450;15.496;2023-10-08T09:51:17;2.33;;;0.63;;
25721;SDS011;13578;53.450;15.496;2023-10-08T09:54:20;1.08;;;0.52;;
25721;SDS011;13578;53.450;15.496;2023-10-08T09:57:25;1.15;;;0.68;;
25721;SDS011;13578;53.450;15.496;2023-10-08T10:00:27;1.05;;;0.50;;
25721;SDS011;13578;53.450;15.496;2023-10-08T10:06:36;0.98;;;0.60;;
25721;SDS011;13578;53.450;15.496;2023-10-08T10:09:37;0.70;;;0.63;;
25721;SDS011;13578;53.450;15.496;2023-10-08T10:12:37;1.30;;;0.60;;
25721;SDS011;13578;53.450;15.496;2023-10-08T10:15:41;2.13;;;0.95;;
25721;SDS011;13578;53.450;15.496;2023-10-08T10:18:46;0.75;;;0.50;;
25721;SDS011;13578;53.450;15.496;2023-10-08T10:21:49;0.60;;;0.40;;
25721;SDS011;13578;53.450;15.496;2023-10-08T10:24:49;1.65;;;0.73;;
25721;SDS011;13578;53.450;15.496;2023-10-08T10:30:55;2.55;;;0.50;;
25721;SDS011;13578;53.450;15.496;2023-10-08T10:33:56;1.63;;;0.68;;
25721;SDS011;13578;53.450;15.496;2023-10-08T10:36:57;2.45;;;0.85;;
25721;SDS011;13578;53.450;15.496;2023-10-08T10:40:00;2.35;;;1.10;;
25721;SDS011;13578;53.450;15.496;2023-10-08T10:43:09;3.40;;;0.98;;
25721;SDS011;13578;53.450;15.496;2023-10-08T10:46:10;5.05;;;1.60;;
25721;SDS011;13578;53.450;15.496;2023-10-08T10:49:29;1.10;;;0.60;;
25721;SDS011;13578;53.450;15.496;2023-10-08T10:52:32;4.75;;;1.50;;
25721;SDS011;13578;53.450;15.496;2023-10-08T10:55:54;2.13;;;1.05;;
25721;SDS011;13578;53.450;15.496;2023-10-08T10:59:09;1.42;;;1.08;;
25721;SDS011;13578;53.450;15.496;2023-10-08T11:02:18;1.92;;;0.90;;
25721;SDS011;13578;53.450;15.496;2023-10-08T11:05:30;1.13;;;0.73;;
25721;SDS011;13578;53.450;15.496;2023-10-08T11:08:37;2.10;;;0.70;;
25721;SDS011;13578;53.450;15.496;2023-10-08T11:11:38;1.30;;;0.60;;
25721;SDS011;13578;53.450;15.496;2023-10-08T11:14:46;1.13;;;0.60;;
25721;SDS011;13578;53.450;15.496;2023-10-08T11:17:47;0.90;;;0.47;;
25721;SDS011;13578;53.450;15.496;2023-10-08T11:20:49;0.88;;;0.55;;
25721;SDS011;13578;53.450;15.496;2023-10-08T11:24:13;0.68;;;0.40;;
25721;SDS011;13578;53.450;15.496;2023-10-08T11:27:25;2.38;;;0.60;;
25721;SDS011;13578;53.450;15.496;2023-10-08T11:30:37;0.52;;;0.43;;
25721;SDS011;13578;53.450;15.496;2023-10-08T11:33:43;1.42;;;0.80;;
25721;SDS011;13578;53.450;15.496;2023-10-08T11:36:56;1.58;;;0.70;;
25721;SDS011;13578;53.450;15.496;2023-10-08T11:39:57;4.13;;;0.75;;
25721;SDS011;13578;53.450;15.496;2023-10-08T11:42:58;2.78;;;1.40;;
25721;SDS011;13578;53.450;15.496;2023-10-08T11:45:59;3.42;;;1.30;;
25721;SDS011;13578;53.450;15.496;2023-10-08T11:49:03;2.17;;;0.75;;
25721;SDS011;13578;53.450;15.496;2023-10-08T11:52:04;4.97;;;1.45;;
25721;SDS011;13578;53.450;15.496;2023-10-08T11:55:05;2.75;;;0.57;;
25721;SDS011;13578;53.450;15.496;2023-10-08T11:58:06;2.05;;;0.50;;
25721;SDS011;13578;53.450;15.496;2023-10-08T12:01:13;1.77;;;0.70;;
25721;SDS011;13578;53.450;15.496;2023-10-08T12:04:17;1.33;;;0.80;;
25721;SDS011;13578;53.450;15.496;2023-10-08T12:07:18;3.47;;;1.17;;
25721;SDS011;13578;53.450;15.496;2023-10-08T12:10:19;4.93;;;0.90;;
25721;SDS011;13578;53.450;15.496;2023-10-08T12:13:23;1.50;;;1.00;;
25721;SDS011;13578;53.450;15.496;2023-10-08T12:16:25;1.00;;;0.90;;
25721;SDS011;13578;53.450;15.496;2023-10-08T12:19:29;0.68;;;0.50;;
25721;SDS011;13578;53.450;15.496;2023-10-08T12:22:32;1.30;;;0.90;;
25721;SDS011;13578;53.450;15.496;2023-10-08T12:25:33;1.70;;;0.95;;
25721;SDS011;13578;53.450;15.496;2023-10-08T12:28:33;4.35;;;1.83;;
25721;SDS011;13578;53.450;15.496;2023-10-08T12:31:34;0.90;;;0.60;;
25721;SDS011;13578;53.450;15.496;2023-10-08T12:34:34;1.27;;;0.70;;
25721;SDS011;13578;53.450;15.496;2023-10-08T12:37:35;1.30;;;0.80;;
25721;SDS011;13578;53.450;15.496;2023-10-08T12:40:36;1.25;;;0.80;;
25721;SDS011;13578;53.450;15.496;2023-10-08T12:44:10;1.00;;;0.73;;
25721;SDS011;13578;53.450;15.496;2023-10-08T12:47:10;2.30;;;0.88;;
25721;SDS011;13578;53.450;15.496;2023-10-08T12:50:13;1.13;;;0.90;;
25721;SDS011;13578;53.450;15.496;2023-10-08T12:53:16;1.45;;;0.63;;
25721;SDS011;13578;53.450;15.496;2023-10-08T12:56:17;4.03;;;0.77;;
25721;SDS011;13578;53.450;15.496;2023-10-08T12:59:21;0.75;;;0.50;;
25721;SDS011;13578;53.450;15.496;2023-10-08T13:02:24;1.30;;;0.70;;
25721;SDS011;13578;53.450;15.496;2023-10-08T13:05:28;1.40;;;0.50;;
25721;SDS011;13578;53.450;15.496;2023-10-08T13:08:29;0.60;;;0.60;;
25721;SDS011;13578;53.450;15.496;2023-10-08T13:11:31;0.80;;;0.50;;
25721;SDS011;13578;53.450;15.496;2023-10-08T13:14:34;1.63;;;0.75;;
25721;SDS011;13578;53.450;15.496;2023-10-08T13:17:35;0.93;;;0.43;;
25721;SDS011;13578;53.450;15.496;2023-10-08T13:20:35;0.90;;;0.60;;
25721;SDS011;13578;53.450;15.496;2023-10-08T13:23:36;1.48;;;0.90;;
25721;SDS011;13578;53.450;15.496;2023-10-08T13:26:37;0.77;;;0.60;;
25721;SDS011;13578;53.450;15.496;2023-10-08T13:29:38;0.98;;;0.75;;
25721;SDS011;13578;53.450;15.496;2023-10-08T13:32:39;1.75;;;0.90;;
25721;SDS011;13578;53.450;15.496;2023-10-08T13:35:39;2.88;;;1.33;;
25721;SDS011;13578;53.450;15.496;2023-10-08T13:38:40;2.88;;;0.90;;
25721;SDS011;13578;53.450;15.496;2023-10-08T13:41:41;1.20;;;0.70;;
25721;SDS011;13578;53.450;15.496;2023-10-08T13:44:42;1.35;;;0.63;;
25721;SDS011;13578;53.450;15.496;2023-10-08T13:47:45;2.05;;;0.80;;
25721;SDS011;13578;53.450;15.496;2023-10-08T13:50:47;0.80;;;0.70;;
25721;SDS011;13578;53.450;15.496;2023-10-08T13:53:49;1.83;;;1.00;;
25721;SDS011;13578;53.450;15.496;2023-10-08T13:56:53;0.70;;;0.65;;
25721;SDS011;13578;53.450;15.496;2023-10-08T13:59:54;4.40;;;0.63;;
25721;SDS011;13578;53.450;15.496;2023-10-08T14:02:56;1.10;;;0.60;;
25721;SDS011;13578;53.450;15.496;2023-10-08T14:05:57;1.38;;;0.50;;
25721;SDS011;13578;53.450;15.496;2023-10-08T14:09:03;2.13;;;0.80;;
25721;SDS011;13578;53.450;15.496;2023-10-08T14:15:10;1.23;;;0.82;;
25721;SDS011;13578;53.450;15.496;2023-10-08T14:18:14;2.15;;;0.80;;
25721;SDS011;13578;53.450;15.496;2023-10-08T14:21:17;1.30;;;0.70;;
25721;SDS011;13578;53.450;15.496;2023-10-08T14:24:18;0.77;;;0.50;;
25721;SDS011;13578;53.450;15.496;2023-10-08T14:27:20;1.45;;;0.70;;
25721;SDS011;13578;53.450;15.496;2023-10-08T14:30:25;4.20;;;1.88;;
25721;SDS011;13578;53.450;15.496;2023-10-08T14:33:30;0.73;;;0.70;;
25721;SDS011;13578;53.450;15.496;2023-10-08T14:36:32;1.00;;;0.65;;
25721;SDS011;13578;53.450;15.496;2023-10-08T14:39:51;2.90;;;1.02;;
25721;SDS011;13578;53.450;15.496;2023-10-08T14:43:11;3.47;;;1.75;;
25721;SDS011;13578;53.450;15.496;2023-10-08T14:46:11;7.78;;;2.53;;
25721;SDS011;13578;53.450;15.496;2023-10-08T14:49:15;6.28;;;2.25;;
25721;SDS011;13578;53.450;15.496;2023-10-08T14:52:16;8.95;;;3.55;;
25721;SDS011;13578;53.450;15.496;2023-10-08T14:55:17;5.88;;;2.17;;
25721;SDS011;13578;53.450;15.496;2023-10-08T14:58:21;5.95;;;1.65;;
25721;SDS011;13578;53.450;15.496;2023-10-08T15:01:23;2.58;;;1.60;;
25721;SDS011;13578;53.450;15.496;2023-10-08T15:04:25;2.40;;;1.65;;
25721;SDS011;13578;53.450;15.496;2023-10-08T15:07:28;3.05;;;0.77;;
25721;SDS011;13578;53.450;15.496;2023-10-08T15:10:29;6.28;;;2.28;;
25721;SDS011;13578;53.450;15.496;2023-10-08T15:13:30;1.95;;;1.33;;
25721;SDS011;13578;53.450;15.496;2023-10-08T15:16:33;1.58;;;0.75;;
25721;SDS011;13578;53.450;15.496;2023-10-08T15:19:33;0.77;;;0.50;;
25721;SDS011;13578;53.450;15.496;2023-10-08T15:22:34;1.50;;;1.00;;
25721;SDS011;13578;53.450;15.496;2023-10-08T15:25:35;2.00;;;1.10;;
25721;SDS011;13578;53.450;15.496;2023-10-08T15:28:36;2.40;;;1.50;;
25721;SDS011;13578;53.450;15.496;2023-10-08T15:31:36;5.05;;;1.88;;
25721;SDS011;13578;53.450;15.496;2023-10-08T15:34:37;1.92;;;1.63;;
25721;SDS011;13578;53.450;15.496;2023-10-08T15:37:39;1.38;;;1.15;;
25721;SDS011;13578;53.450;15.496;2023-10-08T15:40:40;1.83;;;1.42;;
25721;SDS011;13578;53.450;15.496;2023-10-08T15:43:49;2.22;;;1.30;;
25721;SDS011;13578;53.450;15.496;2023-10-08T15:46:51;2.58;;;1.38;;
25721;SDS011;13578;53.450;15.496;2023-10-08T15:49:52;1.30;;;1.20;;
25721;SDS011;13578;53.450;15.496;2023-10-08T15:52:53;2.40;;;1.17;;
25721;SDS011;13578;53.450;15.496;2023-10-08T15:55:54;1.70;;;1.20;;
25721;SDS011;13578;53.450;15.496;2023-10-08T15:58:56;2.35;;;1.35;;
25721;SDS011;13578;53.450;15.496;2023-10-08T16:01:57;1.75;;;1.17;;
25721;SDS011;13578;53.450;15.496;2023-10-08T16:04:57;1.95;;;1.00;;
25721;SDS011;13578;53.450;15.496;2023-10-08T16:07:58;2.38;;;1.95;;
25721;SDS011;13578;53.450;15.496;2023-10-08T16:10:59;2.97;;;2.40;;
25721;SDS011;13578;53.450;15.496;2023-10-08T16:13:59;3.72;;;2.40;;
25721;SDS011;13578;53.450;15.496;2023-10-08T16:17:00;11.18;;;2.80;;
25721;SDS011;13578;53.450;15.496;2023-10-08T16:20:05;2.75;;;1.98;;
25721;SDS011;13578;53.450;15.496;2023-10-08T16:23:13;2.90;;;2.30;;
25721;SDS011;13578;53.450;15.496;2023-10-08T16:26:16;1.90;;;1.40;;
25721;SDS011;13578;53.450;15.496;2023-10-08T16:29:17;1.60;;;1.50;;
25721;SDS011;13578;53.450;15.496;2023-10-08T16:32:18;5.90;;;1.00;;
25721;SDS011;13578;53.450;15.496;2023-10-08T16:35:19;1.45;;;0.95;;
25721;SDS011;13578;53.450;15.496;2023-10-08T16:38:24;1.20;;;0.90;;
25721;SDS011;13578;53.450;15.496;2023-10-08T16:41:24;2.60;;;1.88;;
25721;SDS011;13578;53.450;15.496;2023-10-08T16:44:25;1.52;;;1.40;;
25721;SDS011;13578;53.450;15.496;2023-10-08T16:47:26;3.42;;;2.42;;
25721;SDS011;13578;53.450;15.496;2023-10-08T16:50:26;2.42;;;1.77;;
25721;SDS011;13578;53.450;15.496;2023-10-08T16:53:27;4.13;;;1.90;;
25721;SDS011;13578;53.450;15.496;2023-10-08T16:56:29;2.15;;;1.95;;
25721;SDS011;13578;53.450;15.496;2023-10-08T16:59:31;6.45;;;2.50;;
25721;SDS011;13578;53.450;15.496;2023-10-08T17:02:31;3.88;;;3.03;;
25721;SDS011;13578;53.450;15.496;2023-10-08T17:05:32;4.35;;;2.03;;
25721;SDS011;13578;53.450;15.496;2023-10-08T17:08:33;6.32;;;4.55;;
25721;SDS011;13578;53.450;15.496;2023-10-08T17:11:37;5.75;;;2.45;;
25721;SDS011;13578;53.450;15.496;2023-10-08T17:14:40;4.35;;;3.40;;
25721;SDS011;13578;53.450;15.496;2023-10-08T17:17:40;4.28;;;2.88;;
25721;SDS011;13578;53.450;15.496;2023-10-08T17:20:41;6.20;;;2.53;;
25721;SDS011;13578;53.450;15.496;2023-10-08T17:23:42;6.25;;;4.75;;
25721;SDS011;13578;53.450;15.496;2023-10-08T17:26:43;5.43;;;3.15;;
25721;SDS011;13578;53.450;15.496;2023-10-08T17:29:43;6.22;;;4.07;;
25721;SDS011;13578;53.450;15.496;2023-10-08T17:32:47;2.60;;;2.13;;
25721;SDS011;13578;53.450;15.496;2023-10-08T17:35:49;3.77;;;2.43;;
25721;SDS011;13578;53.450;15.496;2023-10-08T17:38:49;2.45;;;2.20;;
25721;SDS011;13578;53.450;15.496;2023-10-08T17:41:50;3.00;;;2.00;;
25721;SDS011;13578;53.450;15.496;2023-10-08T17:44:50;6.35;;;3.00;;
25721;SDS011;13578;53.450;15.496;2023-10-08T17:47:51;2.33;;;2.13;;
25721;SDS011;13578;53.450;15.496;2023-10-08T17:50:55;5.53;;;2.30;;
25721;SDS011;13578;53.450;15.496;2023-10-08T17:53:56;5.80;;;2.35;;
25721;SDS011;13578;53.450;15.496;2023-10-08T17:56:56;2.45;;;2.03;;
25721;SDS011;13578;53.450;15.496;2023-10-08T17:59:57;2.10;;;1.70;;
25721;SDS011;13578;53.450;15.496;2023-10-08T18:02:57;4.45;;;2.28;;
25721;SDS011;13578;53.450;15.496;2023-10-08T18:05:59;4.53;;;3.45;;
25721;SDS011;13578;53.450;15.496;2023-10-08T18:09:00;2.53;;;2.17;;
25721;SDS011;13578;53.450;15.496;2023-10-08T18:12:00;2.35;;;2.15;;
25721;SDS011;13578;53.450;15.496;2023-10-08T18:15:01;2.75;;;2.08;;
25721;SDS011;13578;53.450;15.496;2023-10-08T18:18:02;4.15;;;2.42;;
25721;SDS011;13578;53.450;15.496;2023-10-08T18:21:08;2.92;;;2.55;;